Time;durP1;ratioP1;P1;durP2;ratioP2;P2;SDS_P1;SDS_P2;PMS_P1;PMS_P2;Temp;Humidity;BMP_temperature;BMP_pressure;BME280_temperature;BME280_humidity;BME280_pressure;Samples;Min_cycle;Max_cycle;Signal;HPM_P1;HPM_P2
2021/10/16 00:01:33;;;;;;;2.00;0.80;;;;;;;;;;5035358;28;20175;-75
2021/10/16 00:03:58;;;;;;;2.33;1.00;;;;;;;;;;5041065;28;20652;-75
2021/10/16 00:06:23;;;;;;;2.40;1.23;;;;;;;;;;5043011;28;20186;-75
2021/10/16 00:08:48;;;;;;;1.90;0.90;;;;;;;;;;5040665;28;20635;-75
2021/10/16 00:11:14;;;;;;;2.70;0.90;;;;;;;;;;5029529;28;20187;-75
2021/10/16 00:13:41;;;;;;;2.57;0.87;;;;;;;;;;5037538;28;20237;-75
2021/10/16 00:16:06;;;;;;;3.63;1.13;;;;;;;;;;5038425;28;20199;-75
2021/10/16 00:18:34;;;;;;;2.93;0.90;;;;;;;;;;5026732;28;20993;-75
2021/10/16 00:21:00;;;;;;;5.63;1.00;;;;;;;;;;5043388;28;20279;-75
2021/10/16 00:23:25;;;;;;;5.07;1.10;;;;;;;;;;5041557;28;20510;-75
2021/10/16 00:25:51;;;;;;;3.33;0.97;;;;;;;;;;5041747;28;20189;-75
2021/10/16 00:28:16;;;;;;;5.70;1.77;;;;;;;;;;5044101;28;20216;-76
2021/10/16 00:30:43;;;;;;;4.53;1.20;;;;;;;;;;5041863;28;20191;-75
2021/10/16 00:33:09;;;;;;;5.27;1.73;;;;;;;;;;5037699;28;20653;-75
2021/10/16 00:35:34;;;;;;;3.97;1.00;;;;;;;;;;5033074;28;20509;-75
2021/10/16 00:38:00;;;;;;;2.83;0.90;;;;;;;;;;5034357;28;20207;-76
2021/10/16 00:40:25;;;;;;;3.50;0.87;;;;;;;;;;5038920;28;20187;-76
2021/10/16 00:42:54;;;;;;;5.87;1.20;;;;;;;;;;5038381;28;20230;-75
2021/10/16 00:45:20;;;;;;;5.80;1.13;;;;;;;;;;5038100;28;20580;-76
2021/10/16 00:47:46;;;;;;;2.83;0.90;;;;;;;;;;5040666;28;20445;-75
2021/10/16 00:50:11;;;;;;;3.17;1.20;;;;;;;;;;5039104;28;20437;-75
2021/10/16 00:52:37;;;;;;;3.20;0.90;;;;;;;;;;5040036;28;20175;-75
2021/10/16 00:55:03;;;;;;;3.70;0.90;;;;;;;;;;5037711;28;20185;-75
2021/10/16 00:57:28;;;;;;;7.20;1.30;;;;;;;;;;5039365;28;20458;-75
2021/10/16 00:59:54;;;;;;;6.17;1.40;;;;;;;;;;5038095;28;20173;-76
2021/10/16 01:02:20;;;;;;;5.87;1.50;;;;;;;;;;5041133;28;20621;-75
2021/10/16 01:04:46;;;;;;;1.97;0.87;;;;;;;;;;5042499;28;21221;-76
2021/10/16 01:07:12;;;;;;;3.30;0.80;;;;;;;;;;5042183;28;21123;-76
2021/10/16 01:09:37;;;;;;;3.53;0.90;;;;;;;;;;5037601;28;20441;-76
2021/10/16 01:12:03;;;;;;;2.60;0.87;;;;;;;;;;5037633;28;20670;-76
2021/10/16 01:14:28;;;;;;;3.43;1.07;;;;;;;;;;5035344;28;20203;-76
2021/10/16 01:16:54;;;;;;;2.77;1.20;;;;;;;;;;5034632;28;20445;-75
2021/10/16 01:19:20;;;;;;;5.13;1.23;;;;;;;;;;5033760;28;20204;-76
2021/10/16 01:21:47;;;;;;;2.83;0.83;;;;;;;;;;5036608;28;20628;-75
2021/10/16 01:24:13;;;;;;;2.60;1.13;;;;;;;;;;5036110;28;20484;-76
2021/10/16 01:26:42;;;;;;;3.30;1.00;;;;;;;;;;5037723;28;20481;-75
2021/10/16 01:29:08;;;;;;;1.77;0.80;;;;;;;;;;5029671;28;20560;-76
2021/10/16 01:31:33;;;;;;;3.83;1.17;;;;;;;;;;5038724;28;20971;-75
2021/10/16 01:34:00;;;;;;;3.47;1.30;;;;;;;;;;5032097;28;20530;-76
2021/10/16 01:36:25;;;;;;;4.70;1.57;;;;;;;;;;5038411;28;20543;-76
2021/10/16 01:38:51;;;;;;;4.17;1.27;;;;;;;;;;5035748;28;20599;-75
2021/10/16 01:41:18;;;;;;;5.00;1.63;;;;;;;;;;5034512;28;20180;-76
2021/10/16 01:43:43;;;;;;;4.30;1.27;;;;;;;;;;5036790;28;20532;-76
2021/10/16 01:46:09;;;;;;;3.50;1.20;;;;;;;;;;5033784;28;20444;-75
2021/10/16 01:48:34;;;;;;;5.07;1.10;;;;;;;;;;5037057;28;20266;-76
2021/10/16 01:51:00;;;;;;;3.20;1.03;;;;;;;;;;5039170;28;20188;-76
2021/10/16 01:53:25;;;;;;;3.63;1.00;;;;;;;;;;5039207;28;20271;-76
2021/10/16 01:55:50;;;;;;;3.57;1.10;;;;;;;;;;5036098;28;20182;-76
2021/10/16 01:58:16;;;;;;;2.70;0.90;;;;;;;;;;5039970;28;20214;-76
2021/10/16 02:00:46;;;;;;;4.83;1.53;;;;;;;;;;5035312;28;20269;-76
2021/10/16 02:03:11;;;;;;;8.20;1.93;;;;;;;;;;5036197;28;20199;-75
2021/10/16 02:05:41;;;;;;;4.63;1.50;;;;;;;;;;5037865;28;21148;-76
2021/10/16 02:08:06;;;;;;;4.77;1.73;;;;;;;;;;5040422;28;20215;-76
2021/10/16 02:10:31;;;;;;;2.67;1.30;;;;;;;;;;5039180;28;20431;-75
2021/10/16 02:12:57;;;;;;;5.23;1.50;;;;;;;;;;5037882;28;20182;-76
2021/10/16 02:15:22;;;;;;;5.37;1.40;;;;;;;;;;5036993;28;20645;-76
2021/10/16 02:17:47;;;;;;;8.17;1.30;;;;;;;;;;5039145;28;20700;-76
2021/10/16 02:20:12;;;;;;;4.03;1.57;;;;;;;;;;5040431;28;20180;-75
2021/10/16 02:22:38;;;;;;;5.67;1.67;;;;;;;;;;5039372;28;20456;-76
2021/10/16 02:25:03;;;;;;;6.73;2.23;;;;;;;;;;5036958;28;20178;-75
2021/10/16 02:27:28;;;;;;;8.80;1.63;;;;;;;;;;5039681;28;20273;-76
2021/10/16 02:29:54;;;;;;;5.00;1.43;;;;;;;;;;5049345;28;20203;-76
2021/10/16 02:32:19;;;;;;;3.30;1.30;;;;;;;;;;5038283;28;20181;-76
2021/10/16 02:34:44;;;;;;;5.97;1.40;;;;;;;;;;5038531;28;20184;-75
2021/10/16 02:37:09;;;;;;;12.13;1.83;;;;;;;;;;5035977;28;20187;-76
2021/10/16 02:39:34;;;;;;;4.80;1.30;;;;;;;;;;5036052;28;20202;-76
2021/10/16 02:42:00;;;;;;;5.30;1.30;;;;;;;;;;5033015;28;20173;-76
2021/10/16 02:44:26;;;;;;;5.87;1.57;;;;;;;;;;5038242;28;20183;-76
2021/10/16 02:46:51;;;;;;;7.30;1.30;;;;;;;;;;5036415;28;20168;-76
2021/10/16 02:49:16;;;;;;;5.97;1.50;;;;;;;;;;5035204;28;20203;-76
2021/10/16 02:51:41;;;;;;;7.70;1.80;;;;;;;;;;5041203;28;20716;-76
2021/10/16 02:54:07;;;;;;;6.47;1.37;;;;;;;;;;5036444;28;20233;-76
2021/10/16 02:56:32;;;;;;;4.00;1.30;;;;;;;;;;5052300;28;20246;-76
2021/10/16 02:58:57;;;;;;;3.73;1.10;;;;;;;;;;5038358;28;20914;-76
2021/10/16 03:01:22;;;;;;;3.40;1.10;;;;;;;;;;5034387;28;21970;-75
2021/10/16 03:03:48;;;;;;;7.27;1.87;;;;;;;;;;5040559;28;20191;-75
2021/10/16 03:06:13;;;;;;;2.47;1.20;;;;;;;;;;5043810;28;20187;-75
2021/10/16 03:08:38;;;;;;;4.73;1.37;;;;;;;;;;5040953;28;20679;-75
2021/10/16 03:11:03;;;;;;;6.03;2.03;;;;;;;;;;5028364;28;20176;-75
2021/10/16 03:13:32;;;;;;;2.73;1.37;;;;;;;;;;5031900;28;20188;-75
2021/10/16 03:15:57;;;;;;;4.57;1.63;;;;;;;;;;5032681;28;20330;-75
2021/10/16 03:18:22;;;;;;;4.80;1.60;;;;;;;;;;5038269;28;20577;-75
2021/10/16 03:20:47;;;;;;;7.63;2.20;;;;;;;;;;5032397;28;20192;-75
2021/10/16 03:23:13;;;;;;;3.93;1.43;;;;;;;;;;5036209;28;20178;-75
2021/10/16 03:25:38;;;;;;;5.63;1.37;;;;;;;;;;5036714;28;20188;-75
2021/10/16 03:28:03;;;;;;;6.27;1.93;;;;;;;;;;5036924;28;20637;-75
2021/10/16 03:30:29;;;;;;;5.83;1.63;;;;;;;;;;5036643;28;20283;-75
2021/10/16 03:32:54;;;;;;;4.67;1.73;;;;;;;;;;5041382;28;20741;-75
2021/10/16 03:35:19;;;;;;;5.90;1.70;;;;;;;;;;5040415;28;20180;-75
2021/10/16 03:37:44;;;;;;;5.87;1.30;;;;;;;;;;5043107;28;20226;-76
2021/10/16 03:40:10;;;;;;;5.17;1.50;;;;;;;;;;5040505;28;20184;-75
2021/10/16 03:42:35;;;;;;;6.00;2.10;;;;;;;;;;5039696;28;20184;-75
2021/10/16 03:45:01;;;;;;;6.40;1.80;;;;;;;;;;5041088;28;20167;-75
2021/10/16 03:47:26;;;;;;;7.60;1.90;;;;;;;;;;5038638;28;20318;-75
2021/10/16 03:49:52;;;;;;;5.03;1.73;;;;;;;;;;5035473;28;20434;-75
2021/10/16 03:52:17;;;;;;;6.50;1.80;;;;;;;;;;5037123;28;20207;-75
2021/10/16 03:54:42;;;;;;;4.43;1.80;;;;;;;;;;5040149;28;20232;-75
2021/10/16 03:57:07;;;;;;;6.23;1.50;;;;;;;;;;5036448;28;20620;-75
2021/10/16 03:59:33;;;;;;;5.10;1.83;;;;;;;;;;5041328;28;20200;-75
2021/10/16 04:01:58;;;;;;;15.30;2.57;;;;;;;;;;5039970;28;20656;-75
2021/10/16 04:04:23;;;;;;;7.30;1.60;;;;;;;;;;5043191;28;20181;-75
2021/10/16 04:06:49;;;;;;;7.20;2.20;;;;;;;;;;5038680;28;20171;-75
2021/10/16 04:09:15;;;;;;;3.80;1.73;;;;;;;;;;5033394;28;20778;-75
2021/10/16 04:11:40;;;;;;;5.63;1.57;;;;;;;;;;5028834;28;23404;-75
2021/10/16 04:14:06;;;;;;;4.60;1.60;;;;;;;;;;5032424;28;20438;-75
2021/10/16 04:16:31;;;;;;;4.00;1.77;;;;;;;;;;5044803;28;20175;-75
2021/10/16 04:18:56;;;;;;;4.50;1.57;;;;;;;;;;5038513;28;20198;-75
2021/10/16 04:21:21;;;;;;;3.80;1.43;;;;;;;;;;5042446;28;20181;-75
2021/10/16 04:23:46;;;;;;;8.50;2.13;;;;;;;;;;5040426;28;20172;-75
2021/10/16 04:26:12;;;;;;;8.10;2.33;;;;;;;;;;5032082;28;20186;-75
2021/10/16 04:28:37;;;;;;;4.20;1.60;;;;;;;;;;5040250;28;20204;-75
2021/10/16 04:31:02;;;;;;;4.90;1.30;;;;;;;;;;5036672;28;20195;-75
2021/10/16 04:33:27;;;;;;;4.83;1.80;;;;;;;;;;5034472;28;20422;-74
2021/10/16 04:35:53;;;;;;;8.20;2.20;;;;;;;;;;5032339;28;20181;-75
2021/10/16 04:38:18;;;;;;;9.40;1.97;;;;;;;;;;5035388;28;20231;-74
2021/10/16 04:40:43;;;;;;;5.87;2.27;;;;;;;;;;5039589;28;20652;-74
2021/10/16 04:43:09;;;;;;;6.63;2.00;;;;;;;;;;5038591;28;20562;-74
2021/10/16 04:45:34;;;;;;;7.73;1.90;;;;;;;;;;5038931;28;20168;-75
2021/10/16 04:48:02;;;;;;;7.20;1.87;;;;;;;;;;5035956;28;20207;-75
2021/10/16 04:50:28;;;;;;;4.40;1.70;;;;;;;;;;5041798;28;20180;-74
2021/10/16 04:52:53;;;;;;;8.13;1.70;;;;;;;;;;5038039;28;20884;-75
2021/10/16 04:55:21;;;;;;;7.83;2.07;;;;;;;;;;5031622;28;20541;-75
2021/10/16 04:57:46;;;;;;;5.93;2.00;;;;;;;;;;5031010;28;20892;-75
2021/10/16 05:00:11;;;;;;;4.60;1.40;;;;;;;;;;5033356;28;20419;-75
2021/10/16 05:02:37;;;;;;;3.27;1.30;;;;;;;;;;5034099;28;20553;-75
2021/10/16 05:05:02;;;;;;;7.90;1.80;;;;;;;;;;5043116;28;20861;-75
2021/10/16 05:07:27;;;;;;;11.00;1.63;;;;;;;;;;5039495;28;20759;-75
2021/10/16 05:09:52;;;;;;;3.33;1.43;;;;;;;;;;5034292;28;20716;-75
2021/10/16 05:12:18;;;;;;;2.93;1.53;;;;;;;;;;5033886;28;20183;-75
2021/10/16 05:14:43;;;;;;;7.13;1.50;;;;;;;;;;5032948;28;20192;-75
2021/10/16 05:17:08;;;;;;;5.10;1.57;;;;;;;;;;5032944;28;20187;-75
2021/10/16 05:19:34;;;;;;;7.80;1.93;;;;;;;;;;5036022;28;20207;-75
2021/10/16 05:21:59;;;;;;;3.77;1.53;;;;;;;;;;5051018;28;20172;-75
2021/10/16 05:24:24;;;;;;;4.50;1.83;;;;;;;;;;5040696;28;20234;-75
2021/10/16 05:26:49;;;;;;;6.23;1.43;;;;;;;;;;5033484;28;20183;-75
2021/10/16 05:29:14;;;;;;;6.13;1.63;;;;;;;;;;5037256;28;20196;-75
2021/10/16 05:31:40;;;;;;;7.17;2.10;;;;;;;;;;5040314;28;20176;-74
2021/10/16 05:34:05;;;;;;;4.10;1.60;;;;;;;;;;5038603;28;20192;-75
2021/10/16 05:36:30;;;;;;;6.70;1.80;;;;;;;;;;5039326;28;20555;-75
2021/10/16 05:38:55;;;;;;;5.50;1.43;;;;;;;;;;5038293;28;20691;-75
2021/10/16 05:41:21;;;;;;;6.90;2.00;;;;;;;;;;5039253;28;20554;-75
2021/10/16 05:43:46;;;;;;;6.20;1.87;;;;;;;;;;5043177;28;20172;-74
2021/10/16 05:46:11;;;;;;;5.60;2.00;;;;;;;;;;5034824;28;20191;-75
2021/10/16 05:48:37;;;;;;;6.10;1.80;;;;;;;;;;5037916;28;20203;-75
2021/10/16 05:51:02;;;;;;;5.20;1.77;;;;;;;;;;5037129;28;20268;-75
2021/10/16 05:53:27;;;;;;;4.70;1.27;;;;;;;;;;5056950;28;20203;-75
2021/10/16 05:55:52;;;;;;;6.13;1.97;;;;;;;;;;5033361;28;20200;-75
2021/10/16 05:58:18;;;;;;;4.13;1.53;;;;;;;;;;5053156;28;20576;-75
2021/10/16 06:00:43;;;;;;;5.23;1.57;;;;;;;;;;5038650;28;20182;-75
2021/10/16 06:03:08;;;;;;;5.80;1.90;;;;;;;;;;5039667;28;20189;-75
2021/10/16 06:05:37;;;;;;;5.03;1.40;;;;;;;;;;5039884;28;20617;-75
2021/10/16 06:08:03;;;;;;;11.20;1.90;;;;;;;;;;5038081;28;20200;-75
2021/10/16 06:10:28;;;;;;;4.47;1.40;;;;;;;;;;5051354;28;20480;-75
2021/10/16 06:12:53;;;;;;;6.47;1.60;;;;;;;;;;5039132;28;20179;-75
2021/10/16 06:15:18;;;;;;;6.07;1.97;;;;;;;;;;5039209;28;20199;-75
2021/10/16 06:17:44;;;;;;;5.60;1.60;;;;;;;;;;5041601;28;20207;-75
2021/10/16 06:20:09;;;;;;;3.77;1.83;;;;;;;;;;5038150;28;20796;-74
2021/10/16 06:22:35;;;;;;;7.57;2.10;;;;;;;;;;5039950;28;20171;-75
2021/10/16 06:25:00;;;;;;;5.40;1.60;;;;;;;;;;5043268;28;20884;-75
2021/10/16 06:27:26;;;;;;;5.97;1.50;;;;;;;;;;5051844;28;20199;-75
2021/10/16 06:29:52;;;;;;;5.73;1.57;;;;;;;;;;5052554;28;20188;-75
2021/10/16 06:32:17;;;;;;;6.87;2.10;;;;;;;;;;5051622;28;20438;-75
2021/10/16 06:34:42;;;;;;;5.27;1.80;;;;;;;;;;5050162;28;20184;-75
2021/10/16 06:37:08;;;;;;;8.50;1.80;;;;;;;;;;5039956;28;20641;-75
2021/10/16 06:39:33;;;;;;;4.13;1.67;;;;;;;;;;5033914;28;20214;-75
2021/10/16 06:41:58;;;;;;;4.43;1.23;;;;;;;;;;5039264;28;20187;-75
2021/10/16 06:44:23;;;;;;;3.80;1.57;;;;;;;;;;5037893;28;20255;-75
2021/10/16 06:46:49;;;;;;;5.20;2.23;;;;;;;;;;5032629;28;20195;-75
2021/10/16 06:49:14;;;;;;;8.70;2.17;;;;;;;;;;5039436;28;20621;-75
2021/10/16 06:51:39;;;;;;;5.37;1.90;;;;;;;;;;5039668;28;20188;-75
2021/10/16 06:54:04;;;;;;;4.60;1.97;;;;;;;;;;5044008;28;20270;-75
2021/10/16 06:56:30;;;;;;;6.00;2.03;;;;;;;;;;5037733;28;20180;-73
2021/10/16 06:58:55;;;;;;;6.20;2.90;;;;;;;;;;5038189;28;20680;-73
2021/10/16 07:01:20;;;;;;;7.80;3.70;;;;;;;;;;5038314;28;20278;-73
2021/10/16 07:03:45;;;;;;;7.50;3.30;;;;;;;;;;5038172;28;20203;-73
2021/10/16 07:06:11;;;;;;;8.60;3.33;;;;;;;;;;5039015;28;20176;-74
2021/10/16 07:08:36;;;;;;;7.13;2.60;;;;;;;;;;5037852;28;20922;-73
2021/10/16 07:11:03;;;;;;;7.73;2.60;;;;;;;;;;5040356;28;20735;-73
2021/10/16 07:13:28;;;;;;;5.00;2.27;;;;;;;;;;5038845;28;20548;-74
2021/10/16 07:15:53;;;;;;;9.80;1.90;;;;;;;;;;5035229;28;20448;-73
2021/10/16 07:18:20;;;;;;;6.33;1.80;;;;;;;;;;5035133;28;20703;-73
2021/10/16 07:20:45;;;;;;;4.60;1.80;;;;;;;;;;5035745;28;20186;-73
2021/10/16 07:23:10;;;;;;;5.40;2.37;;;;;;;;;;5039329;28;20438;-73
2021/10/16 07:25:35;;;;;;;8.67;2.43;;;;;;;;;;5047459;28;20552;-73
2021/10/16 07:28:00;;;;;;;5.20;2.27;;;;;;;;;;5041251;28;20196;-73
2021/10/16 07:30:26;;;;;;;4.10;2.10;;;;;;;;;;5036094;28;20195;-73
2021/10/16 07:32:51;;;;;;;4.00;1.60;;;;;;;;;;5039026;28;20181;-74
2021/10/16 07:35:16;;;;;;;9.50;2.10;;;;;;;;;;5036612;28;20185;-73
2021/10/16 07:37:42;;;;;;;5.80;1.63;;;;;;;;;;5043176;28;20254;-74
2021/10/16 07:40:07;;;;;;;9.53;2.00;;;;;;;;;;5039900;28;20204;-76
2021/10/16 07:42:32;;;;;;;6.13;1.90;;;;;;;;;;5043573;28;20179;-76
2021/10/16 07:44:58;;;;;;;3.40;1.63;;;;;;;;;;5037353;28;20214;-76
2021/10/16 07:47:26;;;;;;;7.70;1.60;;;;;;;;;;5037386;28;20275;-75
2021/10/16 07:49:51;;;;;;;4.57;1.77;;;;;;;;;;5040574;28;20601;-74
2021/10/16 07:52:17;;;;;;;4.60;1.67;;;;;;;;;;5034800;28;20454;-74
2021/10/16 07:54:42;;;;;;;4.23;1.90;;;;;;;;;;5035516;28;20188;-74
2021/10/16 07:57:07;;;;;;;6.60;2.20;;;;;;;;;;5032226;28;20187;-74
2021/10/16 07:59:32;;;;;;;7.13;1.93;;;;;;;;;;5036234;28;20199;-74
2021/10/16 08:01:58;;;;;;;4.40;1.60;;;;;;;;;;5035776;28;20218;-74
2021/10/16 08:04:23;;;;;;;6.30;2.30;;;;;;;;;;5033306;28;20628;-74
2021/10/16 08:06:48;;;;;;;5.83;1.90;;;;;;;;;;5036006;28;20656;-74
2021/10/16 08:09:14;;;;;;;4.83;1.57;;;;;;;;;;5039523;28;20756;-74
2021/10/16 08:11:39;;;;;;;3.80;1.83;;;;;;;;;;5040520;28;20595;-74
2021/10/16 08:14:04;;;;;;;6.17;2.50;;;;;;;;;;5037059;28;20250;-74
2021/10/16 08:16:29;;;;;;;3.83;1.77;;;;;;;;;;5037766;28;20207;-74
2021/10/16 08:18:55;;;;;;;3.70;2.00;;;;;;;;;;5034164;28;20311;-74
2021/10/16 08:21:20;;;;;;;4.50;1.93;;;;;;;;;;5042561;28;20187;-74
2021/10/16 08:23:45;;;;;;;2.90;1.67;;;;;;;;;;5038482;28;20545;-74
2021/10/16 08:26:11;;;;;;;4.10;1.63;;;;;;;;;;5039031;28;20226;-74
2021/10/16 08:28:36;;;;;;;5.23;2.20;;;;;;;;;;5037748;28;20203;-74
2021/10/16 08:31:02;;;;;;;11.93;2.27;;;;;;;;;;5034592;28;20185;-74
2021/10/16 08:33:27;;;;;;;7.13;1.63;;;;;;;;;;5035467;28;20625;-74
2021/10/16 08:35:53;;;;;;;13.20;2.53;;;;;;;;;;5037831;28;20462;-74
2021/10/16 08:38:18;;;;;;;8.23;1.80;;;;;;;;;;5037525;28;20219;-74
2021/10/16 08:40:43;;;;;;;7.60;1.87;;;;;;;;;;5036759;28;20212;-74
2021/10/16 08:43:09;;;;;;;9.40;2.30;;;;;;;;;;5038300;28;20262;-74
2021/10/16 08:45:35;;;;;;;9.13;1.83;;;;;;;;;;5052879;28;20184;-74
2021/10/16 08:48:03;;;;;;;5.33;1.90;;;;;;;;;;5041297;28;20203;-74
2021/10/16 08:50:29;;;;;;;8.00;1.93;;;;;;;;;;5042675;28;20447;-74
2021/10/16 08:52:55;;;;;;;5.87;1.70;;;;;;;;;;5036543;28;20430;-74
2021/10/16 08:55:20;;;;;;;5.43;1.80;;;;;;;;;;5035017;28;20430;-75
2021/10/16 08:57:47;;;;;;;9.10;2.07;;;;;;;;;;5035632;28;20747;-74
2021/10/16 09:00:31;;;;;;;3.23;1.50;;;;;;;;;;5036753;28;20267;-74
2021/10/16 09:02:56;;;;;;;3.80;1.83;;;;;;;;;;5037285;28;20447;-75
2021/10/16 09:05:21;;;;;;;3.67;1.70;;;;;;;;;;5040412;28;20429;-74
2021/10/16 09:07:47;;;;;;;9.90;2.50;;;;;;;;;;5039353;28;20199;-74
2021/10/16 09:10:22;;;;;;;7.53;2.33;;;;;;;;;;5041225;28;20649;-74
2021/10/16 09:12:47;;;;;;;11.37;2.00;;;;;;;;;;5039032;28;20643;-75
2021/10/16 09:15:22;;;;;;;3.20;1.97;;;;;;;;;;5033664;28;20529;-74
2021/10/16 09:18:06;;;;;;;3.43;1.70;;;;;;;;;;5031892;28;20206;-74
2021/10/16 09:20:32;;;;;;;5.27;1.80;;;;;;;;;;5038823;28;21119;-74
2021/10/16 09:23:07;;;;;;;9.90;2.63;;;;;;;;;;5034483;28;20454;-74
2021/10/16 09:25:33;;;;;;;3.90;2.20;;;;;;;;;;5027355;28;20454;-74
2021/10/16 09:28:17;;;;;;;7.73;2.30;;;;;;;;;;5034044;28;20461;-74
2021/10/16 09:30:47;;;;;;;4.97;1.90;;;;;;;;;;5038531;28;20188;-74
2021/10/16 09:33:12;;;;;;;6.63;1.90;;;;;;;;;;5041379;28;20430;-74
2021/10/16 09:35:37;;;;;;;4.97;2.23;;;;;;;;;;5037224;28;20452;-74
2021/10/16 09:38:02;;;;;;;5.70;1.70;;;;;;;;;;5039160;28;20234;-74
2021/10/16 09:40:35;;;;;;;8.30;2.70;;;;;;;;;;5038273;28;20176;-74
2021/10/16 09:43:18;;;;;;;7.73;2.80;;;;;;;;;;5040381;28;20650;-74
2021/10/16 09:45:44;;;;;;;4.77;1.90;;;;;;;;;;5038444;28;20489;-75
2021/10/16 09:48:10;;;;;;;5.33;2.17;;;;;;;;;;5038797;28;20461;-74
2021/10/16 09:50:35;;;;;;;4.50;1.80;;;;;;;;;;5037290;28;20187;-74
2021/10/16 09:53:17;;;;;;;7.30;2.47;;;;;;;;;;5041364;28;20433;-74
2021/10/16 09:55:42;;;;;;;4.37;1.60;;;;;;;;;;5038576;28;20180;-74
2021/10/16 09:58:07;;;;;;;5.37;1.93;;;;;;;;;;5041590;28;20508;-74
2021/10/16 10:00:34;;;;;;;6.90;1.93;;;;;;;;;;5037995;28;20188;-74
2021/10/16 10:03:01;;;;;;;5.17;1.80;;;;;;;;;;5038434;28;20215;-74
2021/10/16 10:05:26;;;;;;;4.27;1.50;;;;;;;;;;5036178;28;20426;-74
2021/10/16 10:07:51;;;;;;;4.97;1.63;;;;;;;;;;5040035;28;20461;-74
2021/10/16 10:10:17;;;;;;;6.10;1.73;;;;;;;;;;5036995;28;20633;-74
2021/10/16 10:12:42;;;;;;;2.63;1.43;;;;;;;;;;5038991;28;20183;-74
2021/10/16 10:15:08;;;;;;;5.57;1.90;;;;;;;;;;5053665;28;20191;-74
2021/10/16 10:17:33;;;;;;;7.40;1.70;;;;;;;;;;5037099;28;20203;-74
2021/10/16 10:20:01;;;;;;;5.43;2.17;;;;;;;;;;5038557;28;20208;-74
2021/10/16 10:22:30;;;;;;;13.27;2.27;;;;;;;;;;5042524;28;20278;-74
2021/10/16 10:24:55;;;;;;;5.30;2.37;;;;;;;;;;5030811;28;20441;-74
2021/10/16 10:27:22;;;;;;;8.80;2.10;;;;;;;;;;5028274;28;20815;-74
2021/10/16 10:29:50;;;;;;;6.80;1.97;;;;;;;;;;5038624;28;20202;-74
2021/10/16 10:32:22;;;;;;;6.83;2.30;;;;;;;;;;5036165;28;20431;-74
2021/10/16 10:34:57;;;;;;;10.00;2.60;;;;;;;;;;5032308;28;20822;-74
2021/10/16 10:37:28;;;;;;;3.80;2.10;;;;;;;;;;5031101;28;20466;-74
2021/10/16 10:39:57;;;;;;;6.37;2.13;;;;;;;;;;5036980;28;21335;-74
2021/10/16 10:42:25;;;;;;;8.70;2.27;;;;;;;;;;5036665;28;20430;-74
2021/10/16 10:44:52;;;;;;;3.03;1.40;;;;;;;;;;5039796;28;20686;-74
2021/10/16 10:47:28;;;;;;;3.80;1.57;;;;;;;;;;5032883;28;20441;-74
2021/10/16 10:49:54;;;;;;;5.53;1.80;;;;;;;;;;5038277;28;20421;-74
2021/10/16 10:52:22;;;;;;;3.90;1.93;;;;;;;;;;5043558;28;20431;-74
2021/10/16 10:55:08;;;;;;;5.60;2.47;;;;;;;;;;5033932;28;20532;-74
2021/10/16 10:57:43;;;;;;;6.60;2.07;;;;;;;;;;5032917;28;20502;-74
2021/10/16 11:00:10;;;;;;;8.10;2.17;;;;;;;;;;5035804;28;20460;-74
2021/10/16 11:02:36;;;;;;;9.37;2.03;;;;;;;;;;5034261;28;20870;-74
2021/10/16 11:05:03;;;;;;;5.87;2.10;;;;;;;;;;5036704;28;20481;-74
2021/10/16 11:07:30;;;;;;;6.43;1.93;;;;;;;;;;5032343;28;20249;-74
2021/10/16 11:09:57;;;;;;;6.00;2.10;;;;;;;;;;5032111;28;20454;-74
2021/10/16 11:12:28;;;;;;;4.30;1.60;;;;;;;;;;5040558;28;20945;-74
2021/10/16 11:14:59;;;;;;;5.30;1.97;;;;;;;;;;5036380;28;20469;-74
2021/10/16 11:17:31;;;;;;;6.00;2.00;;;;;;;;;;5040197;28;20466;-74
2021/10/16 11:19:57;;;;;;;7.50;2.00;;;;;;;;;;5037883;28;20450;-75
2021/10/16 11:22:23;;;;;;;5.37;1.70;;;;;;;;;;5037465;28;20438;-75
2021/10/16 11:24:49;;;;;;;5.97;1.73;;;;;;;;;;5035385;28;20175;-75
2021/10/16 11:27:23;;;;;;;7.10;2.40;;;;;;;;;;5037515;28;20483;-74
2021/10/16 11:29:48;;;;;;;7.83;1.73;;;;;;;;;;5053080;28;20579;-74
2021/10/16 11:32:18;;;;;;;3.23;1.40;;;;;;;;;;5034833;28;20430;-75
2021/10/16 11:34:55;;;;;;;9.53;2.20;;;;;;;;;;5035175;28;20270;-74
2021/10/16 11:37:37;;;;;;;5.70;1.70;;;;;;;;;;5036676;28;20476;-75
2021/10/16 11:40:07;;;;;;;4.90;1.70;;;;;;;;;;5039086;28;20562;-74
2021/10/16 11:42:33;;;;;;;4.27;1.30;;;;;;;;;;5042432;28;20418;-74
2021/10/16 11:44:58;;;;;;;4.83;1.43;;;;;;;;;;5040809;28;20919;-74
2021/10/16 11:47:24;;;;;;;3.90;1.53;;;;;;;;;;5040781;28;20224;-74
2021/10/16 11:49:52;;;;;;;5.90;2.00;;;;;;;;;;5043011;28;20656;-74
2021/10/16 11:52:21;;;;;;;3.43;1.30;;;;;;;;;;5043157;28;20438;-74
2021/10/16 11:54:46;;;;;;;6.33;1.83;;;;;;;;;;5045035;28;20437;-74
2021/10/16 11:57:23;;;;;;;5.70;1.80;;;;;;;;;;5039389;28;21107;-74
2021/10/16 11:59:48;;;;;;;4.20;2.50;;;;;;;;;;5041551;28;20195;-74
2021/10/16 12:02:31;;;;;;;6.90;2.20;;;;;;;;;;5042364;28;20552;-74
2021/10/16 12:05:09;;;;;;;6.77;2.50;;;;;;;;;;5034113;28;20187;-74
2021/10/16 12:07:34;;;;;;;4.27;2.73;;;;;;;;;;5036792;28;20464;-74
2021/10/16 12:10:18;;;;;;;4.63;2.30;;;;;;;;;;5040625;28;21246;-74
2021/10/16 12:12:58;;;;;;;7.50;3.37;;;;;;;;;;5041731;28;20307;-74
2021/10/16 12:15:24;;;;;;;5.60;2.80;;;;;;;;;;5039120;28;20446;-74
2021/10/16 12:17:49;;;;;;;8.60;3.90;;;;;;;;;;5040485;28;21054;-74
2021/10/16 12:20:15;;;;;;;6.27;2.53;;;;;;;;;;5043623;28;20489;-74
2021/10/16 12:22:56;;;;;;;5.03;2.10;;;;;;;;;;5042309;28;20179;-74
2021/10/16 12:25:21;;;;;;;7.23;3.10;;;;;;;;;;5042382;28;20206;-74
2021/10/16 12:27:57;;;;;;;7.17;4.90;;;;;;;;;;5038584;28;21466;-74
2021/10/16 12:30:22;;;;;;;5.60;1.83;;;;;;;;;;5033277;28;20218;-74
2021/10/16 12:33:10;;;;;;;4.47;1.70;;;;;;;;;;5038064;28;20438;-74
2021/10/16 12:35:35;;;;;;;3.93;1.40;;;;;;;;;;5040283;28;20215;-74
2021/10/16 12:38:01;;;;;;;3.27;1.40;;;;;;;;;;5039988;28;20465;-74
2021/10/16 12:40:35;;;;;;;5.73;1.67;;;;;;;;;;5037777;28;20202;-74
2021/10/16 12:43:00;;;;;;;3.57;1.57;;;;;;;;;;5039483;28;20183;-74
2021/10/16 12:45:34;;;;;;;5.67;2.20;;;;;;;;;;5038194;28;20843;-74
2021/10/16 12:48:19;;;;;;;8.70;2.10;;;;;;;;;;5041257;28;20198;-74
2021/10/16 12:50:49;;;;;;;10.17;2.83;;;;;;;;;;5038049;28;20507;-74
2021/10/16 12:53:14;;;;;;;6.10;1.77;;;;;;;;;;5042598;28;20425;-74
2021/10/16 12:55:42;;;;;;;7.40;2.40;;;;;;;;;;5039118;28;20534;-74
2021/10/16 12:58:08;;;;;;;3.30;2.33;;;;;;;;;;5037556;28;20282;-74
2021/10/16 13:00:37;;;;;;;6.50;1.90;;;;;;;;;;5034010;28;20430;-74
2021/10/16 13:03:03;;;;;;;5.70;2.10;;;;;;;;;;5037164;28;20216;-74
2021/10/16 13:05:29;;;;;;;6.70;2.30;;;;;;;;;;5038077;28;20426;-74
2021/10/16 13:07:55;;;;;;;5.10;1.97;;;;;;;;;;5035332;28;20942;-74
2021/10/16 13:10:20;;;;;;;4.80;2.03;;;;;;;;;;5031775;28;20448;-74
2021/10/16 13:12:45;;;;;;;4.70;1.50;;;;;;;;;;5031897;28;20577;-74
2021/10/16 13:15:11;;;;;;;5.43;2.00;;;;;;;;;;5029930;28;20183;-74
2021/10/16 13:17:36;;;;;;;4.97;1.70;;;;;;;;;;5026149;28;20231;-76
2021/10/16 13:20:02;;;;;;;4.33;1.40;;;;;;;;;;5032462;28;21008;-74
2021/10/16 13:22:28;;;;;;;4.90;2.20;;;;;;;;;;5034668;28;20192;-74
2021/10/16 13:24:53;;;;;;;3.10;1.50;;;;;;;;;;5035611;28;20449;-74
2021/10/16 13:27:18;;;;;;;5.80;1.87;;;;;;;;;;5023763;28;20168;-74
2021/10/16 13:29:46;;;;;;;9.93;2.17;;;;;;;;;;5029666;28;20184;-74
2021/10/16 13:32:11;;;;;;;5.20;1.97;;;;;;;;;;5029951;28;21576;-73
2021/10/16 13:34:37;;;;;;;4.53;1.70;;;;;;;;;;5028379;28;20435;-73
2021/10/16 13:37:02;;;;;;;6.37;2.00;;;;;;;;;;5026110;28;20211;-73
2021/10/16 13:39:27;;;;;;;4.80;2.00;;;;;;;;;;5024862;28;20208;-73
2021/10/16 13:41:53;;;;;;;3.00;1.80;;;;;;;;;;5030260;28;20677;-74
2021/10/16 13:44:19;;;;;;;6.33;1.90;;;;;;;;;;5035005;28;20186;-74
2021/10/16 13:46:44;;;;;;;3.37;1.40;;;;;;;;;;5038103;28;20195;-74
2021/10/16 13:49:09;;;;;;;4.70;2.07;;;;;;;;;;5038113;28;20492;-74
2021/10/16 13:51:34;;;;;;;6.17;2.10;;;;;;;;;;5038951;28;20180;-74
2021/10/16 13:54:07;;;;;;;6.50;1.90;;;;;;;;;;5035872;28;20179;-73
2021/10/16 13:56:32;;;;;;;7.00;2.63;;;;;;;;;;5031557;28;20176;-75
2021/10/16 13:58:58;;;;;;;7.33;2.40;;;;;;;;;;5029498;28;20466;-74
2021/10/16 14:01:23;;;;;;;7.30;2.33;;;;;;;;;;5029142;28;20207;-75
2021/10/16 14:03:48;;;;;;;9.23;2.93;;;;;;;;;;5028208;28;20270;-74
2021/10/16 14:06:13;;;;;;;6.10;1.73;;;;;;;;;;5024761;28;20864;-74
2021/10/16 14:08:38;;;;;;;9.33;2.20;;;;;;;;;;5028104;28;20216;-74
2021/10/16 14:11:04;;;;;;;5.50;1.97;;;;;;;;;;5030042;28;20191;-74
2021/10/16 14:13:29;;;;;;;4.30;2.10;;;;;;;;;;5026843;28;20181;-74
2021/10/16 14:15:54;;;;;;;4.40;2.03;;;;;;;;;;5027539;28;20234;-74
2021/10/16 14:18:20;;;;;;;5.93;1.67;;;;;;;;;;5028407;28;20293;-73
2021/10/16 14:20:45;;;;;;;9.73;2.53;;;;;;;;;;5027613;28;20229;-74
2021/10/16 14:23:10;;;;;;;7.83;2.10;;;;;;;;;;5028356;28;20179;-74
2021/10/16 14:25:36;;;;;;;3.80;1.60;;;;;;;;;;5026671;28;20656;-74
2021/10/16 14:28:01;;;;;;;3.90;1.57;;;;;;;;;;5027020;28;20208;-74
2021/10/16 14:30:26;;;;;;;7.17;1.90;;;;;;;;;;5022777;28;20282;-75
2021/10/16 14:32:52;;;;;;;4.70;1.73;;;;;;;;;;5026681;28;20180;-74
2021/10/16 14:35:17;;;;;;;7.67;2.27;;;;;;;;;;5028266;28;20207;-74
2021/10/16 14:37:42;;;;;;;7.03;2.07;;;;;;;;;;5027355;28;20219;-74
2021/10/16 14:40:07;;;;;;;6.80;1.93;;;;;;;;;;5029198;28;20208;-74